Tingri, China
Current Conditions -  °F | °C
As of 4:50 AM on Friday 21 Nov 2014 (Local Time) from VNKT Reporting Station
Haze Haze  
Wind Chill: 50°   Ceiling: Unl
Heat Index: 50°   Visibility: 3mi
Dew Point: 48°   Wind: 0mph
Humidity: 94%   Direction: NA
Pressure: 30.06"   Gusts: NA
Location:  28.63°N, 87.08°E
Report Text: VNKT 202050Z 00000KT 5000 BR FEW020 10/09 Q1018 NOSIG
Loading
Personal Weather Stations






























Interactive Weather Map New forecast layout! Learn more

10-Day Weather Forecast

Advertisements
Track Severe Weather on mobile